sensor_id;sensor_type;location;lat;lon;timestamp;temperature;humidity
5972;DHT22;3012;49.944;8.454;2023-08-20T00:01:23;23.80;99.90
5972;DHT22;3012;49.944;8.454;2023-08-20T00:03:54;23.80;99.90
5972;DHT22;3012;49.944;8.454;2023-08-20T00:06:25;23.80;99.90
5972;DHT22;3012;49.944;8.454;2023-08-20T00:08:57;23.80;99.90
5972;DHT22;3012;49.944;8.454;2023-08-20T00:11:28;23.80;99.90
5972;DHT22;3012;49.944;8.454;2023-08-20T00:13:59;23.80;99.90
5972;DHT22;3012;49.944;8.454;2023-08-20T00:16:29;23.80;99.90
5972;DHT22;3012;49.944;8.454;2023-08-20T00:18:59;23.80;99.90
5972;DHT22;3012;49.944;8.454;2023-08-20T00:21:30;23.80;99.90
5972;DHT22;3012;49.944;8.454;2023-08-20T00:24:02;23.70;99.90
5972;DHT22;3012;49.944;8.454;2023-08-20T00:26:33;23.70;99.90
5972;DHT22;3012;49.944;8.454;2023-08-20T00:29:04;23.70;99.90
5972;DHT22;3012;49.944;8.454;2023-08-20T00:31:34;23.70;99.90
5972;DHT22;3012;49.944;8.454;2023-08-20T00:34:04;23.90;99.90
5972;DHT22;3012;49.944;8.454;2023-08-20T00:36:34;23.60;99.90
5972;DHT22;3012;49.944;8.454;2023-08-20T00:39:06;23.70;99.90
5972;DHT22;3012;49.944;8.454;2023-08-20T00:41:36;23.70;99.90
5972;DHT22;3012;49.944;8.454;2023-08-20T00:44:06;23.60;99.90
5972;DHT22;3012;49.944;8.454;2023-08-20T00:46:36;23.70;99.90
5972;DHT22;3012;49.944;8.454;2023-08-20T00:49:06;23.60;99.90
5972;DHT22;3012;49.944;8.454;2023-08-20T00:51:37;23.60;99.90
5972;DHT22;3012;49.944;8.454;2023-08-20T00:54:09;23.60;99.90
5972;DHT22;3012;49.944;8.454;2023-08-20T00:56:41;23.50;99.90
5972;DHT22;3012;49.944;8.454;2023-08-20T00:59:12;23.20;99.90
5972;DHT22;3012;49.944;8.454;2023-08-20T01:01:42;23.70;99.90
5972;DHT22;3012;49.944;8.454;2023-08-20T01:04:12;23.40;99.90
5972;DHT22;3012;49.944;8.454;2023-08-20T01:06:50;23.40;99.90
5972;DHT22;3012;49.944;8.454;2023-08-20T01:09:29;23.30;99.90
5972;DHT22;3012;49.944;8.454;2023-08-20T01:12:03;23.30;99.90
5972;DHT22;3012;49.944;8.454;2023-08-20T01:14:36;23.30;99.90
5972;DHT22;3012;49.944;8.454;2023-08-20T01:17:06;23.30;99.90
5972;DHT22;3012;49.944;8.454;2023-08-20T01:19:36;23.20;99.90
5972;DHT22;3012;49.944;8.454;2023-08-20T01:22:21;23.20;99.90
5972;DHT22;3012;49.944;8.454;2023-08-20T01:25:04;23.10;99.90
5972;DHT22;3012;49.944;8.454;2023-08-20T01:27:51;23.00;99.90
5972;DHT22;3012;49.944;8.454;2023-08-20T01:30:24;23.00;99.90
5972;DHT22;3012;49.944;8.454;2023-08-20T01:32:54;23.00;99.90
5972;DHT22;3012;49.944;8.454;2023-08-20T01:35:25;23.20;99.90
5972;DHT22;3012;49.944;8.454;2023-08-20T01:37:55;22.90;99.90
5972;DHT22;3012;49.944;8.454;2023-08-20T01:40:25;22.90;99.90
5972;DHT22;3012;49.944;8.454;2023-08-20T01:42:56;23.00;99.90
5972;DHT22;3012;49.944;8.454;2023-08-20T01:45:28;22.90;99.90
5972;DHT22;3012;49.944;8.454;2023-08-20T01:47:58;22.90;99.90
5972;DHT22;3012;49.944;8.454;2023-08-20T01:50:28;22.90;99.90
5972;DHT22;3012;49.944;8.454;2023-08-20T01:52:59;22.80;99.90
5972;DHT22;3012;49.944;8.454;2023-08-20T01:55:30;22.80;99.90
5972;DHT22;3012;49.944;8.454;2023-08-20T01:58:03;22.60;99.90
5972;DHT22;3012;49.944;8.454;2023-08-20T02:00:36;22.70;99.90
5972;DHT22;3012;49.944;8.454;2023-08-20T02:03:06;22.70;99.90
5972;DHT22;3012;49.944;8.454;2023-08-20T02:05:36;22.70;99.90
5972;DHT22;3012;49.944;8.454;2023-08-20T02:08:06;22.70;99.90
5972;DHT22;3012;49.944;8.454;2023-08-20T02:10:36;22.60;99.90
5972;DHT22;3012;49.944;8.454;2023-08-20T02:13:06;22.70;99.90
5972;DHT22;3012;49.944;8.454;2023-08-20T02:15:38;22.70;99.90
5972;DHT22;3012;49.944;8.454;2023-08-20T02:18:08;22.60;99.90
5972;DHT22;3012;49.944;8.454;2023-08-20T02:20:39;22.60;99.90
5972;DHT22;3012;49.944;8.454;2023-08-20T02:23:09;22.60;99.90
5972;DHT22;3012;49.944;8.454;2023-08-20T02:25:39;22.60;99.90
5972;DHT22;3012;49.944;8.454;2023-08-20T02:28:10;22.60;99.90
5972;DHT22;3012;49.944;8.454;2023-08-20T02:30:42;22.50;99.90
5972;DHT22;3012;49.944;8.454;2023-08-20T02:33:13;22.70;99.90
5972;DHT22;3012;49.944;8.454;2023-08-20T02:35:42;22.50;99.90
5972;DHT22;3012;49.944;8.454;2023-08-20T02:38:13;22.50;99.90
5972;DHT22;3012;49.944;8.454;2023-08-20T02:40:43;22.60;99.90
5972;DHT22;3012;49.944;8.454;2023-08-20T02:43:14;22.50;99.90
5972;DHT22;3012;49.944;8.454;2023-08-20T02:45:45;22.50;99.90
5972;DHT22;3012;49.944;8.454;2023-08-20T02:48:15;22.40;99.90
5972;DHT22;3012;49.944;8.454;2023-08-20T02:50:45;22.40;99.90
5972;DHT22;3012;49.944;8.454;2023-08-20T02:53:16;22.40;99.90
5972;DHT22;3012;49.944;8.454;2023-08-20T02:55:47;22.60;99.90
5972;DHT22;3012;49.944;8.454;2023-08-20T02:58:17;22.30;99.90
5972;DHT22;3012;49.944;8.454;2023-08-20T03:00:49;22.30;99.90
5972;DHT22;3012;49.944;8.454;2023-08-20T03:03:19;22.30;99.90
5972;DHT22;3012;49.944;8.454;2023-08-20T03:05:49;22.00;99.90
5972;DHT22;3012;49.944;8.454;2023-08-20T03:08:20;22.10;99.90
5972;DHT22;3012;49.944;8.454;2023-08-20T03:10:50;22.40;99.90
5972;DHT22;3012;49.944;8.454;2023-08-20T03:13:22;22.20;99.90
5972;DHT22;3012;49.944;8.454;2023-08-20T03:15:55;22.20;99.90
5972;DHT22;3012;49.944;8.454;2023-08-20T03:18:25;22.20;99.90
5972;DHT22;3012;49.944;8.454;2023-08-20T03:20:56;22.10;99.90
5972;DHT22;3012;49.944;8.454;2023-08-20T03:23:26;22.10;99.90
5972;DHT22;3012;49.944;8.454;2023-08-20T03:25:58;22.00;99.90
5972;DHT22;3012;49.944;8.454;2023-08-20T03:28:28;22.00;99.90
5972;DHT22;3012;49.944;8.454;2023-08-20T03:31:01;22.00;99.90
5972;DHT22;3012;49.944;8.454;2023-08-20T03:33:32;22.00;99.90
5972;DHT22;3012;49.944;8.454;2023-08-20T03:36:03;22.00;99.90
5972;DHT22;3012;49.944;8.454;2023-08-20T03:38:33;22.00;99.90
5972;DHT22;3012;49.944;8.454;2023-08-20T03:41:03;21.80;99.90
5972;DHT22;3012;49.944;8.454;2023-08-20T03:43:33;21.90;99.90
5972;DHT22;3012;49.944;8.454;2023-08-20T03:46:05;22.00;99.90
5972;DHT22;3012;49.944;8.454;2023-08-20T03:48:35;21.90;99.90
5972;DHT22;3012;49.944;8.454;2023-08-20T03:51:06;22.00;99.90
5972;DHT22;3012;49.944;8.454;2023-08-20T03:53:36;21.90;99.90
5972;DHT22;3012;49.944;8.454;2023-08-20T03:56:06;21.90;99.90
5972;DHT22;3012;49.944;8.454;2023-08-20T03:58:36;21.90;99.90
5972;DHT22;3012;49.944;8.454;2023-08-20T04:01:08;21.90;99.90
5972;DHT22;3012;49.944;8.454;2023-08-20T04:03:38;21.90;99.90
5972;DHT22;3012;49.944;8.454;2023-08-20T04:06:09;22.00;99.90
5972;DHT22;3012;49.944;8.454;2023-08-20T04:08:39;21.90;99.90
5972;DHT22;3012;49.944;8.454;2023-08-20T04:11:10;21.90;99.90
5972;DHT22;3012;49.944;8.454;2023-08-20T04:13:40;21.90;99.90
5972;DHT22;3012;49.944;8.454;2023-08-20T04:16:13;21.60;99.90
5972;DHT22;3012;49.944;8.454;2023-08-20T04:18:43;21.90;99.90
5972;DHT22;3012;49.944;8.454;2023-08-20T04:21:13;21.90;99.90
5972;DHT22;3012;49.944;8.454;2023-08-20T04:23:44;21.90;99.90
5972;DHT22;3012;49.944;8.454;2023-08-20T04:26:14;22.00;99.90
5972;DHT22;3012;49.944;8.454;2023-08-20T04:28:44;21.80;99.90
5972;DHT22;3012;49.944;8.454;2023-08-20T04:31:16;21.90;99.90
5972;DHT22;3012;49.944;8.454;2023-08-20T04:33:46;22.00;99.90
5972;DHT22;3012;49.944;8.454;2023-08-20T04:36:17;21.90;99.90
5972;DHT22;3012;49.944;8.454;2023-08-20T04:38:47;22.00;99.90
5972;DHT22;3012;49.944;8.454;2023-08-20T04:41:18;22.00;99.90
5972;DHT22;3012;49.944;8.454;2023-08-20T04:43:48;22.00;99.90
5972;DHT22;3012;49.944;8.454;2023-08-20T04:46:20;22.10;99.90
5972;DHT22;3012;49.944;8.454;2023-08-20T04:48:50;22.10;99.90
5972;DHT22;3012;49.944;8.454;2023-08-20T04:51:20;22.00;99.90
5972;DHT22;3012;49.944;8.454;2023-08-20T04:53:51;22.00;99.90
5972;DHT22;3012;49.944;8.454;2023-08-20T04:56:23;22.00;99.90
5972;DHT22;3012;49.944;8.454;2023-08-20T04:58:55;22.00;99.90
5972;DHT22;3012;49.944;8.454;2023-08-20T05:01:32;22.00;99.90
5972;DHT22;3012;49.944;8.454;2023-08-20T05:04:05;22.00;99.90
5972;DHT22;3012;49.944;8.454;2023-08-20T05:06:37;21.90;99.90
5972;DHT22;3012;49.944;8.454;2023-08-20T05:09:08;21.90;99.90
5972;DHT22;3012;49.944;8.454;2023-08-20T05:11:38;21.90;99.90
5972;DHT22;3012;49.944;8.454;2023-08-20T05:14:09;22.10;99.90
5972;DHT22;3012;49.944;8.454;2023-08-20T05:16:40;21.50;99.90
5972;DHT22;3012;49.944;8.454;2023-08-20T05:19:10;21.90;99.90
5972;DHT22;3012;49.944;8.454;2023-08-20T05:21:41;22.00;99.90
5972;DHT22;3012;49.944;8.454;2023-08-20T05:24:11;22.00;99.90
5972;DHT22;3012;49.944;8.454;2023-08-20T05:26:41;22.00;99.90
5972;DHT22;3012;49.944;8.454;2023-08-20T05:29:11;22.10;99.90
5972;DHT22;3012;49.944;8.454;2023-08-20T05:31:43;22.10;99.90
5972;DHT22;3012;49.944;8.454;2023-08-20T05:34:14;21.90;99.90
5972;DHT22;3012;49.944;8.454;2023-08-20T05:36:44;22.20;99.90
5972;DHT22;3012;49.944;8.454;2023-08-20T05:39:16;22.40;99.90
5972;DHT22;3012;49.944;8.454;2023-08-20T05:41:46;22.30;99.90
5972;DHT22;3012;49.944;8.454;2023-08-20T05:44:16;22.40;99.90
5972;DHT22;3012;49.944;8.454;2023-08-20T05:46:48;22.40;99.90
5972;DHT22;3012;49.944;8.454;2023-08-20T05:49:19;22.50;99.90
5972;DHT22;3012;49.944;8.454;2023-08-20T05:51:49;22.50;99.90
5972;DHT22;3012;49.944;8.454;2023-08-20T05:54:19;22.50;99.90
5972;DHT22;3012;49.944;8.454;2023-08-20T05:56:49;22.50;99.90
5972;DHT22;3012;49.944;8.454;2023-08-20T05:59:20;22.60;99.90
5972;DHT22;3012;49.944;8.454;2023-08-20T06:01:53;22.60;99.90
5972;DHT22;3012;49.944;8.454;2023-08-20T06:04:24;22.60;99.90
5972;DHT22;3012;49.944;8.454;2023-08-20T06:06:54;22.60;99.90
5972;DHT22;3012;49.944;8.454;2023-08-20T06:09:24;22.70;99.90
5972;DHT22;3012;49.944;8.454;2023-08-20T06:11:54;22.70;99.90
5972;DHT22;3012;49.944;8.454;2023-08-20T06:14:24;22.70;99.90
5972;DHT22;3012;49.944;8.454;2023-08-20T06:16:56;22.60;99.90
5972;DHT22;3012;49.944;8.454;2023-08-20T06:19:26;22.60;99.90
5972;DHT22;3012;49.944;8.454;2023-08-20T06:21:56;22.80;99.90
5972;DHT22;3012;49.944;8.454;2023-08-20T06:24:26;22.80;99.90
5972;DHT22;3012;49.944;8.454;2023-08-20T06:26:57;22.60;99.90
5972;DHT22;3012;49.944;8.454;2023-08-20T06:29:27;22.80;99.90
5972;DHT22;3012;49.944;8.454;2023-08-20T06:31:58;23.00;99.90
5972;DHT22;3012;49.944;8.454;2023-08-20T06:34:28;22.80;99.90
5972;DHT22;3012;49.944;8.454;2023-08-20T06:36:59;22.90;99.90
5972;DHT22;3012;49.944;8.454;2023-08-20T06:39:29;22.90;99.90
5972;DHT22;3012;49.944;8.454;2023-08-20T06:41:59;23.20;99.90
5972;DHT22;3012;49.944;8.454;2023-08-20T06:44:29;23.10;99.90
5972;DHT22;3012;49.944;8.454;2023-08-20T06:47:01;23.10;99.90
5972;DHT22;3012;49.944;8.454;2023-08-20T06:49:31;23.20;99.90
5972;DHT22;3012;49.944;8.454;2023-08-20T06:52:02;23.50;99.90
5972;DHT22;3012;49.944;8.454;2023-08-20T06:54:32;23.40;99.90
5972;DHT22;3012;49.944;8.454;2023-08-20T06:57:02;23.50;99.90
5972;DHT22;3012;49.944;8.454;2023-08-20T06:59:33;23.50;99.90
5972;DHT22;3012;49.944;8.454;2023-08-20T07:02:05;23.60;99.90
5972;DHT22;3012;49.944;8.454;2023-08-20T07:04:35;23.60;99.90
5972;DHT22;3012;49.944;8.454;2023-08-20T07:07:05;23.70;99.90
5972;DHT22;3012;49.944;8.454;2023-08-20T07:09:36;23.70;99.90
5972;DHT22;3012;49.944;8.454;2023-08-20T07:12:06;24.00;99.90
5972;DHT22;3012;49.944;8.454;2023-08-20T07:14:36;24.00;99.90
5972;DHT22;3012;49.944;8.454;2023-08-20T07:17:08;24.00;99.90
5972;DHT22;3012;49.944;8.454;2023-08-20T07:19:38;24.10;99.90
5972;DHT22;3012;49.944;8.454;2023-08-20T07:22:08;24.10;99.90
5972;DHT22;3012;49.944;8.454;2023-08-20T07:24:38;24.20;99.90
5972;DHT22;3012;49.944;8.454;2023-08-20T07:27:09;24.20;99.90
5972;DHT22;3012;49.944;8.454;2023-08-20T07:29:41;24.30;99.90
5972;DHT22;3012;49.944;8.454;2023-08-20T07:32:13;24.30;99.90
5972;DHT22;3012;49.944;8.454;2023-08-20T07:34:43;24.40;99.90
5972;DHT22;3012;49.944;8.454;2023-08-20T07:37:13;24.40;99.90
5972;DHT22;3012;49.944;8.454;2023-08-20T07:39:43;24.50;99.90
5972;DHT22;3012;49.944;8.454;2023-08-20T07:42:13;24.60;99.90
5972;DHT22;3012;49.944;8.454;2023-08-20T07:44:43;24.60;99.90
5972;DHT22;3012;49.944;8.454;2023-08-20T07:47:15;24.70;99.90
5972;DHT22;3012;49.944;8.454;2023-08-20T07:49:45;24.80;99.90
5972;DHT22;3012;49.944;8.454;2023-08-20T07:52:16;24.90;99.90
5972;DHT22;3012;49.944;8.454;2023-08-20T07:54:46;25.00;99.90
5972;DHT22;3012;49.944;8.454;2023-08-20T07:57:16;25.10;99.90
5972;DHT22;3012;49.944;8.454;2023-08-20T07:59:47;25.20;99.90
5972;DHT22;3012;49.944;8.454;2023-08-20T08:02:18;25.20;99.90
5972;DHT22;3012;49.944;8.454;2023-08-20T08:04:49;25.30;99.90
5972;DHT22;3012;49.944;8.454;2023-08-20T08:07:19;25.40;99.90
5972;DHT22;3012;49.944;8.454;2023-08-20T08:09:49;25.50;99.90
5972;DHT22;3012;49.944;8.454;2023-08-20T08:12:19;25.60;99.90
5972;DHT22;3012;49.944;8.454;2023-08-20T08:14:49;25.70;99.90
5972;DHT22;3012;49.944;8.454;2023-08-20T08:17:21;25.80;99.90
5972;DHT22;3012;49.944;8.454;2023-08-20T08:19:51;25.90;99.90
5972;DHT22;3012;49.944;8.454;2023-08-20T08:22:22;26.00;99.90
5972;DHT22;3012;49.944;8.454;2023-08-20T08:24:52;26.10;99.90
5972;DHT22;3012;49.944;8.454;2023-08-20T08:27:22;26.20;99.90
5972;DHT22;3012;49.944;8.454;2023-08-20T08:29:52;26.30;99.90
5972;DHT22;3012;49.944;8.454;2023-08-20T08:32:23;26.40;99.90
5972;DHT22;3012;49.944;8.454;2023-08-20T08:34:54;26.50;99.90
5972;DHT22;3012;49.944;8.454;2023-08-20T08:37:24;26.60;99.90
5972;DHT22;3012;49.944;8.454;2023-08-20T08:39:54;26.60;99.90
5972;DHT22;3012;49.944;8.454;2023-08-20T08:42:25;26.70;99.90
5972;DHT22;3012;49.944;8.454;2023-08-20T08:44:56;26.80;99.90
5972;DHT22;3012;49.944;8.454;2023-08-20T08:47:28;26.90;99.90
5972;DHT22;3012;49.944;8.454;2023-08-20T08:49:59;27.00;99.90
5972;DHT22;3012;49.944;8.454;2023-08-20T08:52:30;27.00;99.90
5972;DHT22;3012;49.944;8.454;2023-08-20T08:55:02;27.10;99.90
5972;DHT22;3012;49.944;8.454;2023-08-20T08:57:33;27.20;99.90
5972;DHT22;3012;49.944;8.454;2023-08-20T09:00:05;27.30;99.90
5972;DHT22;3012;49.944;8.454;2023-08-20T09:02:38;27.30;99.90
5972;DHT22;3012;49.944;8.454;2023-08-20T09:05:08;27.40;99.90
5972;DHT22;3012;49.944;8.454;2023-08-20T09:07:42;27.40;99.90
5972;DHT22;3012;49.944;8.454;2023-08-20T09:10:17;27.60;99.90
5972;DHT22;3012;49.944;8.454;2023-08-20T09:12:48;27.70;99.90
5972;DHT22;3012;49.944;8.454;2023-08-20T09:15:19;27.70;99.90
5972;DHT22;3012;49.944;8.454;2023-08-20T09:17:51;27.80;99.90
5972;DHT22;3012;49.944;8.454;2023-08-20T09:20:34;27.90;99.90
5972;DHT22;3012;49.944;8.454;2023-08-20T09:23:11;28.00;99.90
5972;DHT22;3012;49.944;8.454;2023-08-20T09:25:43;28.00;99.90
5972;DHT22;3012;49.944;8.454;2023-08-20T09:28:13;28.10;99.90
5972;DHT22;3012;49.944;8.454;2023-08-20T09:30:55;28.10;99.90
5972;DHT22;3012;49.944;8.454;2023-08-20T09:33:27;28.20;99.90
5972;DHT22;3012;49.944;8.454;2023-08-20T09:35:58;28.20;99.90
5972;DHT22;3012;49.944;8.454;2023-08-20T09:38:28;28.30;99.90
5972;DHT22;3012;49.944;8.454;2023-08-20T09:40:59;28.30;99.90
5972;DHT22;3012;49.944;8.454;2023-08-20T09:43:31;28.30;99.90
5972;DHT22;3012;49.944;8.454;2023-08-20T09:46:04;28.40;99.90
5972;DHT22;3012;49.944;8.454;2023-08-20T09:48:41;28.50;99.90
5972;DHT22;3012;49.944;8.454;2023-08-20T09:51:14;28.60;99.90
5972;DHT22;3012;49.944;8.454;2023-08-20T09:53:53;28.60;99.90
5972;DHT22;3012;49.944;8.454;2023-08-20T09:56:28;28.70;99.90
5972;DHT22;3012;49.944;8.454;2023-08-20T09:58:58;28.80;99.90
5972;DHT22;3012;49.944;8.454;2023-08-20T10:01:29;28.80;99.90
5972;DHT22;3012;49.944;8.454;2023-08-20T10:04:02;28.80;99.90
5972;DHT22;3012;49.944;8.454;2023-08-20T10:06:33;28.90;99.90
5972;DHT22;3012;49.944;8.454;2023-08-20T10:09:03;29.00;99.90
5972;DHT22;3012;49.944;8.454;2023-08-20T10:11:34;29.10;99.90
5972;DHT22;3012;49.944;8.454;2023-08-20T10:14:05;29.20;99.90
5972;DHT22;3012;49.944;8.454;2023-08-20T10:16:36;29.30;99.90
5972;DHT22;3012;49.944;8.454;2023-08-20T10:19:09;29.50;99.90
5972;DHT22;3012;49.944;8.454;2023-08-20T10:21:44;29.60;99.90
5972;DHT22;3012;49.944;8.454;2023-08-20T10:24:17;29.60;99.90
5972;DHT22;3012;49.944;8.454;2023-08-20T10:26:48;29.70;99.90
5972;DHT22;3012;49.944;8.454;2023-08-20T10:29:36;29.70;99.90
5972;DHT22;3012;49.944;8.454;2023-08-20T10:32:09;29.80;99.90
5972;DHT22;3012;49.944;8.454;2023-08-20T10:34:47;29.80;99.90
5972;DHT22;3012;49.944;8.454;2023-08-20T10:37:27;29.90;99.90
5972;DHT22;3012;49.944;8.454;2023-08-20T10:39:57;30.00;99.90
5972;DHT22;3012;49.944;8.454;2023-08-20T10:42:28;30.10;99.90
5972;DHT22;3012;49.944;8.454;2023-08-20T10:44:58;30.10;99.90
5972;DHT22;3012;49.944;8.454;2023-08-20T10:47:37;30.10;99.90
5972;DHT22;3012;49.944;8.454;2023-08-20T10:50:09;30.30;99.90
5972;DHT22;3012;49.944;8.454;2023-08-20T10:52:40;30.40;99.90
5972;DHT22;3012;49.944;8.454;2023-08-20T10:55:10;30.40;99.90
5972;DHT22;3012;49.944;8.454;2023-08-20T10:57:40;30.40;99.90
5972;DHT22;3012;49.944;8.454;2023-08-20T11:00:15;30.60;99.90
5972;DHT22;3012;49.944;8.454;2023-08-20T11:02:46;30.70;99.90
5972;DHT22;3012;49.944;8.454;2023-08-20T11:05:19;30.70;99.90
5972;DHT22;3012;49.944;8.454;2023-08-20T11:07:50;30.80;99.90
5972;DHT22;3012;49.944;8.454;2023-08-20T11:10:20;30.90;99.90
5972;DHT22;3012;49.944;8.454;2023-08-20T11:12:51;31.00;99.90
5972;DHT22;3012;49.944;8.454;2023-08-20T11:15:21;31.10;99.90
5972;DHT22;3012;49.944;8.454;2023-08-20T11:17:51;31.20;99.90
5972;DHT22;3012;49.944;8.454;2023-08-20T11:20:23;31.20;99.60
5972;DHT22;3012;49.944;8.454;2023-08-20T11:22:53;31.30;98.40
5972;DHT22;3012;49.944;8.454;2023-08-20T11:25:23;31.30;98.50
5972;DHT22;3012;49.944;8.454;2023-08-20T11:27:53;31.30;98.00
5972;DHT22;3012;49.944;8.454;2023-08-20T11:30:29;31.50;96.70
5972;DHT22;3012;49.944;8.454;2023-08-20T11:32:59;31.50;96.70
5972;DHT22;3012;49.944;8.454;2023-08-20T11:35:32;31.60;95.10
5972;DHT22;3012;49.944;8.454;2023-08-20T11:38:03;31.80;94.50
5972;DHT22;3012;49.944;8.454;2023-08-20T11:40:33;32.10;94.00
5972;DHT22;3012;49.944;8.454;2023-08-20T11:43:05;32.40;92.50
5972;DHT22;3012;49.944;8.454;2023-08-20T11:45:45;32.80;92.20
5972;DHT22;3012;49.944;8.454;2023-08-20T11:48:16;33.10;90.20
5972;DHT22;3012;49.944;8.454;2023-08-20T11:50:48;33.50;89.30
5972;DHT22;3012;49.944;8.454;2023-08-20T11:53:21;34.20;85.40
5972;DHT22;3012;49.944;8.454;2023-08-20T11:55:52;34.80;82.40
5972;DHT22;3012;49.944;8.454;2023-08-20T11:58:22;35.30;76.60
5972;DHT22;3012;49.944;8.454;2023-08-20T12:00:53;35.80;72.60
5972;DHT22;3012;49.944;8.454;2023-08-20T12:03:29;36.30;69.40
5972;DHT22;3012;49.944;8.454;2023-08-20T12:06:17;36.50;66.90
5972;DHT22;3012;49.944;8.454;2023-08-20T12:08:48;36.50;64.50
5972;DHT22;3012;49.944;8.454;2023-08-20T12:11:18;36.20;64.50
5972;DHT22;3012;49.944;8.454;2023-08-20T12:13:48;35.50;61.80
5972;DHT22;3012;49.944;8.454;2023-08-20T12:16:21;35.00;64.40
5972;DHT22;3012;49.944;8.454;2023-08-20T12:18:51;34.80;66.30
5972;DHT22;3012;49.944;8.454;2023-08-20T12:21:23;34.40;65.20
5972;DHT22;3012;49.944;8.454;2023-08-20T12:23:54;34.10;69.00
5972;DHT22;3012;49.944;8.454;2023-08-20T12:26:24;34.00;67.30
5972;DHT22;3012;49.944;8.454;2023-08-20T12:28:54;33.90;68.20
5972;DHT22;3012;49.944;8.454;2023-08-20T12:31:24;33.90;69.30
5972;DHT22;3012;49.944;8.454;2023-08-20T12:33:54;33.90;69.80
5972;DHT22;3012;49.944;8.454;2023-08-20T12:36:27;33.70;69.20
5972;DHT22;3012;49.944;8.454;2023-08-20T12:38:57;33.50;68.70
5972;DHT22;3012;49.944;8.454;2023-08-20T12:41:27;33.70;70.70
5972;DHT22;3012;49.944;8.454;2023-08-20T12:43:57;33.70;70.00
5972;DHT22;3012;49.944;8.454;2023-08-20T12:46:27;33.80;73.60
5972;DHT22;3012;49.944;8.454;2023-08-20T12:48:57;33.80;71.70
5972;DHT22;3012;49.944;8.454;2023-08-20T12:51:29;33.90;71.70
5972;DHT22;3012;49.944;8.454;2023-08-20T12:53:59;34.10;74.00
5972;DHT22;3012;49.944;8.454;2023-08-20T12:56:29;34.30;69.60
5972;DHT22;3012;49.944;8.454;2023-08-20T12:58:59;34.40;71.20
5972;DHT22;3012;49.944;8.454;2023-08-20T13:01:29;34.40;68.20
5972;DHT22;3012;49.944;8.454;2023-08-20T13:04:00;34.50;69.60
5972;DHT22;3012;49.944;8.454;2023-08-20T13:06:33;34.60;69.50
5972;DHT22;3012;49.944;8.454;2023-08-20T13:09:03;34.70;68.90
5972;DHT22;3012;49.944;8.454;2023-08-20T13:11:33;34.80;67.60
5972;DHT22;3012;49.944;8.454;2023-08-20T13:14:04;35.10;66.00
5972;DHT22;3012;49.944;8.454;2023-08-20T13:16:34;35.50;64.00
5972;DHT22;3012;49.944;8.454;2023-08-20T13:19:05;35.60;63.10
5972;DHT22;3012;49.944;8.454;2023-08-20T13:21:37;35.80;63.20
5972;DHT22;3012;49.944;8.454;2023-08-20T13:24:07;35.80;63.40
5972;DHT22;3012;49.944;8.454;2023-08-20T13:26:37;35.80;64.20
5972;DHT22;3012;49.944;8.454;2023-08-20T13:29:07;35.80;62.80
5972;DHT22;3012;49.944;8.454;2023-08-20T13:31:38;35.60;60.90
5972;DHT22;3012;49.944;8.454;2023-08-20T13:34:08;35.60;62.10
5972;DHT22;3012;49.944;8.454;2023-08-20T13:36:40;35.50;60.00
5972;DHT22;3012;49.944;8.454;2023-08-20T13:39:10;35.50;60.90
5972;DHT22;3012;49.944;8.454;2023-08-20T13:41:41;35.30;60.10
5972;DHT22;3012;49.944;8.454;2023-08-20T13:44:12;35.40;61.40
5972;DHT22;3012;49.944;8.454;2023-08-20T13:46:42;35.50;60.10
5972;DHT22;3012;49.944;8.454;2023-08-20T13:49:12;35.60;60.40
5972;DHT22;3012;49.944;8.454;2023-08-20T13:51:44;35.50;59.30
5972;DHT22;3012;49.944;8.454;2023-08-20T13:54:15;35.50;58.20
5972;DHT22;3012;49.944;8.454;2023-08-20T13:56:45;35.30;59.30
5972;DHT22;3012;49.944;8.454;2023-08-20T13:59:16;35.30;57.70
5972;DHT22;3012;49.944;8.454;2023-08-20T14:01:46;35.30;57.50
5972;DHT22;3012;49.944;8.454;2023-08-20T14:04:16;35.50;59.40
5972;DHT22;3012;49.944;8.454;2023-08-20T14:06:48;35.80;57.50
5972;DHT22;3012;49.944;8.454;2023-08-20T14:09:18;36.00;56.90
5972;DHT22;3012;49.944;8.454;2023-08-20T14:11:48;36.40;55.90
5972;DHT22;3012;49.944;8.454;2023-08-20T14:14:18;36.50;54.40
5972;DHT22;3012;49.944;8.454;2023-08-20T14:16:48;36.50;54.60
5972;DHT22;3012;49.944;8.454;2023-08-20T14:19:18;36.70;54.20
5972;DHT22;3012;49.944;8.454;2023-08-20T14:21:50;37.00;53.50
5972;DHT22;3012;49.944;8.454;2023-08-20T14:24:20;37.00;52.90
5972;DHT22;3012;49.944;8.454;2023-08-20T14:26:50;37.50;52.90
5972;DHT22;3012;49.944;8.454;2023-08-20T14:29:20;38.10;52.00
5972;DHT22;3012;49.944;8.454;2023-08-20T14:31:50;38.50;50.80
5972;DHT22;3012;49.944;8.454;2023-08-20T14:34:20;38.80;50.90
5972;DHT22;3012;49.944;8.454;2023-08-20T14:36:52;39.20;50.50
5972;DHT22;3012;49.944;8.454;2023-08-20T14:39:23;39.40;49.10
5972;DHT22;3012;49.944;8.454;2023-08-20T14:41:53;39.30;48.10
5972;DHT22;3012;49.944;8.454;2023-08-20T14:44:23;38.80;49.20
5972;DHT22;3012;49.944;8.454;2023-08-20T14:46:53;37.80;49.80
5972;DHT22;3012;49.944;8.454;2023-08-20T14:49:23;36.90;51.30
5972;DHT22;3012;49.944;8.454;2023-08-20T14:51:55;35.80;52.40
5972;DHT22;3012;49.944;8.454;2023-08-20T14:54:45;35.00;53.80
5972;DHT22;3012;49.944;8.454;2023-08-20T14:57:15;34.20;55.10
5972;DHT22;3012;49.944;8.454;2023-08-20T14:59:46;33.60;56.10
5972;DHT22;3012;49.944;8.454;2023-08-20T15:02:16;33.10;55.30
5972;DHT22;3012;49.944;8.454;2023-08-20T15:04:46;32.60;56.00
5972;DHT22;3012;49.944;8.454;2023-08-20T15:07:17;32.30;57.20
5972;DHT22;3012;49.944;8.454;2023-08-20T15:09:47;32.00;55.90
5972;DHT22;3012;49.944;8.454;2023-08-20T15:12:17;31.80;57.20
5972;DHT22;3012;49.944;8.454;2023-08-20T15:14:48;31.60;57.80
5972;DHT22;3012;49.944;8.454;2023-08-20T15:17:18;31.50;58.10
5972;DHT22;3012;49.944;8.454;2023-08-20T15:19:48;31.30;56.80
5972;DHT22;3012;49.944;8.454;2023-08-20T15:22:20;31.20;57.40
5972;DHT22;3012;49.944;8.454;2023-08-20T15:24:50;31.00;57.30
5972;DHT22;3012;49.944;8.454;2023-08-20T15:27:21;31.00;58.00
5972;DHT22;3012;49.944;8.454;2023-08-20T15:29:51;30.80;58.20
5972;DHT22;3012;49.944;8.454;2023-08-20T15:32:22;30.90;59.10
5972;DHT22;3012;49.944;8.454;2023-08-20T15:34:55;30.70;59.50
5972;DHT22;3012;49.944;8.454;2023-08-20T15:37:26;30.60;59.40
5972;DHT22;3012;49.944;8.454;2023-08-20T15:39:57;30.60;59.80
5972;DHT22;3012;49.944;8.454;2023-08-20T15:42:27;30.50;60.60
5972;DHT22;3012;49.944;8.454;2023-08-20T15:44:57;30.50;61.20
5972;DHT22;3012;49.944;8.454;2023-08-20T15:47:27;30.40;62.00
5972;DHT22;3012;49.944;8.454;2023-08-20T15:49:58;30.40;61.90
5972;DHT22;3012;49.944;8.454;2023-08-20T15:52:30;30.30;62.20
5972;DHT22;3012;49.944;8.454;2023-08-20T15:55:00;30.30;63.60
5972;DHT22;3012;49.944;8.454;2023-08-20T15:57:31;30.30;64.00
5972;DHT22;3012;49.944;8.454;2023-08-20T16:00:03;30.20;64.90
5972;DHT22;3012;49.944;8.454;2023-08-20T16:02:34;30.20;65.40
5972;DHT22;3012;49.944;8.454;2023-08-20T16:05:04;30.10;66.00
5972;DHT22;3012;49.944;8.454;2023-08-20T16:07:36;30.10;67.10
5972;DHT22;3012;49.944;8.454;2023-08-20T16:10:07;30.10;67.40
5972;DHT22;3012;49.944;8.454;2023-08-20T16:12:38;30.10;67.50
5972;DHT22;3012;49.944;8.454;2023-08-20T16:15:10;30.00;66.90
5972;DHT22;3012;49.944;8.454;2023-08-20T16:17:40;30.00;67.20
5972;DHT22;3012;49.944;8.454;2023-08-20T16:20:11;30.00;68.10
5972;DHT22;3012;49.944;8.454;2023-08-20T16:22:43;30.00;67.50
5972;DHT22;3012;49.944;8.454;2023-08-20T16:25:14;29.90;68.30
5972;DHT22;3012;49.944;8.454;2023-08-20T16:27:46;29.80;68.30